Time;durP1;ratioP1;P1;durP2;ratioP2;P2;SDS_P1;SDS_P2;PMS_P1;PMS_P2;Temp;Humidity;BMP_temperature;BMP_pressure;BME280_temperature;BME280_humidity;BME280_pressure;Samples;Min_cycle;Max_cycle;Signal;HPM_P1;HPM_P2
2022/10/13 00:00:34;;;;;;;15.67;11.97;;;16.60;60.70;;;;;;5097649;27;20466;-86
2022/10/13 00:03:02;;;;;;;20.87;12.43;;;16.50;60.90;;;;;;5119530;27;20459;-87
2022/10/13 00:05:30;;;;;;;19.33;12.97;;;16.50;60.80;;;;;;5114844;27;20561;-87
2022/10/13 00:07:58;;;;;;;20.03;11.90;;;16.60;61.10;;;;;;5113020;27;20535;-86
2022/10/13 00:10:27;;;;;;;22.37;12.90;;;16.50;60.50;;;;;;5114870;27;20462;-86
2022/10/13 00:12:54;;;;;;;23.17;12.50;;;16.60;60.60;;;;;;5088126;28;20443;-87
2022/10/13 00:15:24;;;;;;;20.90;13.73;;;16.50;60.40;;;;;;5106822;27;20483;-85
2022/10/13 00:17:52;;;;;;;23.27;14.40;;;16.60;60.20;;;;;;5113369;27;20525;-88
2022/10/13 00:20:19;;;;;;;31.03;13.83;;;16.60;60.10;;;;;;5105490;27;20549;-86
2022/10/13 00:22:46;;;;;;;26.67;13.20;;;16.60;60.10;;;;;;5121637;27;20526;-86
2022/10/13 00:25:13;;;;;;;20.03;11.60;;;16.60;60.20;;;;;;5109316;27;20454;-87
2022/10/13 00:27:42;;;;;;;19.93;12.63;;;16.30;60.60;;;;;;5100541;27;20490;-88
2022/10/13 00:30:10;;;;;;;20.90;12.03;;;16.10;61.30;;;;;;5117823;27;20529;-88
2022/10/13 00:32:39;;;;;;;27.53;13.50;;;16.20;61.20;;;;;;5114431;27;20478;-86
2022/10/13 00:35:07;;;;;;;21.83;12.47;;;16.40;60.80;;;;;;5096958;28;20807;-86
2022/10/13 00:37:34;;;;;;;26.93;12.60;;;16.40;60.70;;;;;;5100220;27;20525;-86
2022/10/13 00:40:01;;;;;;;21.60;13.47;;;16.40;60.60;;;;;;5115666;27;21246;-90
2022/10/13 00:42:28;;;;;;;23.47;13.30;;;16.40;60.60;;;;;;5098361;27;21030;-87
2022/10/13 00:45:04;;;;;;;22.37;13.53;;;16.50;60.30;;;;;;5104784;27;21196;-85
2022/10/13 00:47:36;;;;;;;23.93;13.17;;;16.40;60.60;;;;;;5119038;27;20538;-86
2022/10/13 00:50:07;;;;;;;22.10;12.90;;;16.40;60.60;;;;;;5119059;27;20457;-85
2022/10/13 00:52:34;;;;;;;20.30;12.33;;;16.30;60.80;;;;;;5115743;27;20479;-84
2022/10/13 00:55:03;;;;;;;25.90;13.50;;;16.30;60.60;;;;;;5105874;28;20447;-86
2022/10/13 00:57:32;;;;;;;28.90;12.90;;;16.30;60.70;;;;;;5087463;27;20457;-85
2022/10/13 01:00:03;;;;;;;25.10;13.03;;;16.30;60.50;;;;;;5115470;27;20470;-87
2022/10/13 01:02:34;;;;;;;27.13;12.60;;;16.30;60.80;;;;;;5114754;27;20877;-85
2022/10/13 01:05:04;;;;;;;28.23;13.30;;;16.30;60.80;;;;;;5113142;27;20603;-86
2022/10/13 01:07:31;;;;;;;34.37;14.80;;;16.40;60.40;;;;;;5114856;27;21260;-87
2022/10/13 01:09:59;;;;;;;31.60;13.20;;;16.50;60.30;;;;;;5104121;27;20489;-85
2022/10/13 01:12:39;;;;;;;44.00;15.33;;;16.50;60.30;;;;;;5110947;27;20482;-84
2022/10/13 01:15:13;;;;;;;30.77;14.60;;;16.50;60.40;;;;;;5099723;27;20453;-85
2022/10/13 01:17:52;;;;;;;29.10;14.53;;;16.40;60.80;;;;;;5110943;27;20525;-86
2022/10/13 01:20:56;;;;;;;30.93;14.97;;;16.40;60.90;;;;;;5112415;27;21347;-85
2022/10/13 01:23:50;;;;;;;38.53;15.83;;;16.30;60.90;;;;;;5113403;27;20442;-84
2022/10/13 01:26:39;;;;;;;38.43;16.10;;;16.10;61.50;;;;;;5091506;27;20549;-85
2022/10/13 01:29:21;;;;;;;48.63;15.10;;;16.10;61.80;;;;;;5096661;28;20467;-85
2022/10/13 01:31:59;;;;;;;43.57;15.50;;;16.10;62.00;;;;;;5111268;27;20492;-86
2022/10/13 01:34:33;;;;;;;31.03;14.23;;;16.10;61.90;;;;;;5115125;28;20471;-85
2022/10/13 01:37:05;;;;;;;33.07;13.03;;;16.10;61.80;;;;;;5115745;28;20449;-86
2022/10/13 01:39:38;;;;;;;27.40;13.50;;;16.20;61.60;;;;;;5086511;28;20469;-85
2022/10/13 01:42:17;;;;;;;31.67;16.17;;;16.20;61.50;;;;;;5101304;28;20901;-85
2022/10/13 01:44:51;;;;;;;33.73;15.83;;;16.20;61.50;;;;;;5116243;28;20964;-86
2022/10/13 01:47:21;;;;;;;35.03;15.90;;;16.30;61.30;;;;;;5120516;28;20522;-84
2022/10/13 01:49:52;;;;;;;41.47;14.70;;;16.30;61.50;;;;;;5099641;28;21001;-85
2022/10/13 01:52:21;;;;;;;34.63;14.30;;;16.10;61.90;;;;;;5116921;28;20463;-86
2022/10/13 01:54:49;;;;;;;59.87;15.10;;;16.00;62.20;;;;;;5113592;28;20442;-87
2022/10/13 01:57:34;;;;;;;64.43;16.70;;;16.00;62.10;;;;;;5111639;28;20447;-86
2022/10/13 02:00:05;;;;;;;31.63;15.90;;;15.70;64.20;;;;;;5113528;28;20502;-86
2022/10/13 02:02:47;;;;;;;37.50;16.40;;;15.80;63.60;;;;;;5114121;28;20450;-87
2022/10/13 02:05:24;;;;;;;37.40;14.40;;;16.00;63.10;;;;;;5099296;28;20533;-87
2022/10/13 02:07:56;;;;;;;53.57;16.27;;;16.10;62.50;;;;;;5113673;28;20499;-90
2022/10/13 02:10:31;;;;;;;30.20;16.10;;;16.20;62.50;;;;;;5115315;28;20489;-86
2022/10/13 02:13:01;;;;;;;28.37;14.03;;;16.20;62.00;;;;;;5115044;28;20446;-85
2022/10/13 02:15:31;;;;;;;37.37;15.10;;;16.30;61.90;;;;;;5113011;28;20447;-86
2022/10/13 02:18:03;;;;;;;48.27;15.63;;;16.30;62.10;;;;;;5116326;27;20534;-86
2022/10/13 02:20:31;;;;;;;52.00;17.27;;;16.30;62.40;;;;;;5095189;28;20459;-85
2022/10/13 02:23:04;;;;;;;69.87;14.90;;;16.30;62.20;;;;;;5105693;28;20509;-85
2022/10/13 02:25:33;;;;;;;40.00;14.70;;;16.20;62.30;;;;;;5113502;28;20471;-86
2022/10/13 02:28:02;;;;;;;36.50;15.53;;;16.20;62.30;;;;;;5082276;28;20466;-86
2022/10/13 02:30:32;;;;;;;35.50;15.20;;;16.30;62.20;;;;;;5114434;28;20878;-86
2022/10/13 02:32:59;;;;;;;33.77;15.00;;;16.40;62.00;;;;;;5115248;28;20513;-86
2022/10/13 02:35:31;;;;;;;69.93;17.00;;;16.40;61.80;;;;;;5100730;28;20447;-86
2022/10/13 02:38:01;;;;;;;36.47;16.80;;;16.30;61.80;;;;;;5110401;28;20438;-85
2022/10/13 02:40:28;;;;;;;22.53;13.63;;;16.20;62.10;;;;;;5111792;27;20466;-87
2022/10/13 02:42:55;;;;;;;27.10;16.17;;;16.20;62.00;;;;;;5114790;28;20560;-85
2022/10/13 02:45:23;;;;;;;30.63;14.87;;;16.30;61.90;;;;;;5113508;28;20495;-87
2022/10/13 02:47:50;;;;;;;30.30;15.00;;;16.30;61.40;;;;;;5112828;27;20555;-86
2022/10/13 02:50:18;;;;;;;28.97;14.80;;;16.30;61.70;;;;;;5115118;27;20466;-85
2022/10/13 02:52:46;;;;;;;56.83;15.70;;;16.30;61.80;;;;;;5115952;27;20445;-87
2022/10/13 02:55:13;;;;;;;25.83;14.53;;;16.40;61.70;;;;;;5118706;27;20554;-86
2022/10/13 02:57:43;;;;;;;26.60;13.80;;;16.40;61.50;;;;;;5105110;27;20462;-85
2022/10/13 03:00:12;;;;;;;25.20;13.70;;;16.50;61.50;;;;;;5117863;27;20483;-85
2022/10/13 03:02:39;;;;;;;35.53;15.70;;;16.50;61.10;;;;;;5119754;27;20458;-85
2022/10/13 03:05:06;;;;;;;41.73;15.70;;;16.40;61.40;;;;;;5107325;27;20487;-85
2022/10/13 03:07:33;;;;;;;30.97;15.13;;;16.30;61.70;;;;;;5114325;27;20474;-87
2022/10/13 03:10:02;;;;;;;25.77;15.50;;;16.30;61.60;;;;;;5116544;27;20980;-85
2022/10/13 03:12:29;;;;;;;22.20;13.90;;;16.30;61.90;;;;;;5113193;27;20466;-86
2022/10/13 03:14:56;;;;;;;37.67;16.70;;;15.90;62.80;;;;;;5115741;27;20840;-86
2022/10/13 03:17:23;;;;;;;31.83;15.07;;;15.70;63.50;;;;;;5089039;27;20826;-85
2022/10/13 03:19:50;;;;;;;55.87;14.83;;;15.80;63.80;;;;;;5104034;27;20628;-87
2022/10/13 03:22:18;;;;;;;34.10;16.63;;;15.90;63.20;;;;;;5116267;27;20438;-87
2022/10/13 03:24:45;;;;;;;48.40;15.20;;;16.00;63.30;;;;;;5099760;27;20458;-85
2022/10/13 03:27:14;;;;;;;35.50;15.50;;;16.00;63.10;;;;;;5124580;27;20494;-86
2022/10/13 03:29:41;;;;;;;43.20;14.90;;;16.00;63.10;;;;;;5123461;27;20475;-86
2022/10/13 03:32:08;;;;;;;29.50;14.37;;;16.10;62.70;;;;;;5098096;28;20496;-87
2022/10/13 03:34:35;;;;;;;29.60;15.40;;;16.10;62.60;;;;;;5112598;27;20473;-86
2022/10/13 03:37:02;;;;;;;25.63;15.63;;;16.20;62.40;;;;;;5115651;27;20451;-88
2022/10/13 03:39:34;;;;;;;28.10;15.60;;;16.30;62.40;;;;;;5114086;27;20555;-88
2022/10/13 03:42:01;;;;;;;28.83;16.07;;;16.30;62.20;;;;;;5095646;27;20508;-87
2022/10/13 03:44:30;;;;;;;56.30;15.60;;;16.30;62.00;;;;;;5116558;27;20461;-85
2022/10/13 03:46:57;;;;;;;34.67;14.87;;;16.10;62.20;;;;;;5109919;27;20495;-86
2022/10/13 03:49:24;;;;;;;39.90;17.13;;;16.10;63.70;;;;;;5115375;27;20520;-86
2022/10/13 03:51:51;;;;;;;34.23;15.73;;;16.00;63.10;;;;;;5106390;27;20500;-86
2022/10/13 03:54:18;;;;;;;38.70;15.77;;;16.10;63.00;;;;;;5115646;27;20454;-87
2022/10/13 03:56:47;;;;;;;33.77;16.03;;;16.10;62.80;;;;;;5116734;27;20447;-86
2022/10/13 03:59:15;;;;;;;32.60;15.50;;;16.20;62.80;;;;;;5115845;27;20466;-87
2022/10/13 04:01:44;;;;;;;32.90;17.53;;;16.20;62.90;;;;;;5114850;27;20460;-86
2022/10/13 04:04:12;;;;;;;32.03;16.23;;;16.30;62.70;;;;;;5077664;28;20534;-86
2022/10/13 04:06:42;;;;;;;37.13;17.47;;;16.20;62.80;;;;;;5117958;27;20463;-85
2022/10/13 04:09:09;;;;;;;37.17;17.50;;;16.10;62.80;;;;;;5115863;27;20493;-89
2022/10/13 04:11:36;;;;;;;47.77;18.13;;;16.20;63.10;;;;;;5113124;27;20451;-87
2022/10/13 04:14:03;;;;;;;40.57;17.90;;;16.10;63.20;;;;;;5112864;27;20871;-86
2022/10/13 04:16:31;;;;;;;52.33;22.60;;;16.10;63.50;;;;;;5121957;27;20517;-85
2022/10/13 04:19:02;;;;;;;43.40;20.27;;;16.10;63.20;;;;;;5105618;27;20529;-87
2022/10/13 04:21:32;;;;;;;50.10;19.00;;;16.20;63.10;;;;;;5117377;27;20565;-86
2022/10/13 04:24:00;;;;;;;51.33;17.10;;;16.20;62.80;;;;;;5084780;27;20928;-87
2022/10/13 04:26:30;;;;;;;56.60;17.70;;;16.00;63.20;;;;;;5102560;27;20599;-88
2022/10/13 04:28:59;;;;;;;48.90;17.70;;;15.90;63.80;;;;;;5132695;27;20565;-87
2022/10/13 04:31:29;;;;;;;38.40;15.80;;;15.90;64.10;;;;;;5109350;27;20442;-86
2022/10/13 04:33:57;;;;;;;47.03;19.20;;;16.00;63.90;;;;;;5109077;27;20450;-85
2022/10/13 04:36:26;;;;;;;53.80;24.50;;;16.10;63.40;;;;;;5109967;27;20536;-88
2022/10/13 04:38:54;;;;;;;35.30;16.40;;;16.20;63.50;;;;;;5096617;27;20550;-86
2022/10/13 04:41:21;;;;;;;45.00;17.57;;;16.20;63.00;;;;;;5111891;27;20529;-87
2022/10/13 04:43:49;;;;;;;36.97;16.50;;;16.30;63.00;;;;;;5114767;27;20507;-86
2022/10/13 04:46:18;;;;;;;41.27;16.50;;;16.30;63.00;;;;;;5118579;27;20465;-86
2022/10/13 04:48:46;;;;;;;53.80;18.60;;;16.30;63.00;;;;;;5114360;27;20458;-86
2022/10/13 04:51:15;;;;;;;45.93;17.10;;;16.30;62.70;;;;;;5110203;27;20438;-87
2022/10/13 04:53:44;;;;;;;36.57;15.97;;;16.40;62.80;;;;;;5101472;27;20458;-86
2022/10/13 04:56:15;;;;;;;33.90;16.03;;;16.40;62.70;;;;;;5111166;27;20504;-87
2022/10/13 04:58:43;;;;;;;41.50;18.27;;;16.40;62.80;;;;;;5115385;27;20475;-85
2022/10/13 05:01:14;;;;;;;35.50;17.60;;;16.40;62.80;;;;;;5096425;28;20442;-86
2022/10/13 05:03:42;;;;;;;38.37;17.50;;;16.40;62.80;;;;;;5109332;27;22654;-87
2022/10/13 05:06:14;;;;;;;41.23;19.50;;;16.30;63.00;;;;;;5099865;27;20875;-87
2022/10/13 05:08:43;;;;;;;32.73;17.20;;;16.30;63.20;;;;;;5111716;27;20550;-86
2022/10/13 05:11:14;;;;;;;29.10;15.23;;;16.30;63.10;;;;;;5092324;28;20534;-87
2022/10/13 05:13:41;;;;;;;37.17;16.70;;;16.40;62.80;;;;;;5110641;27;20457;-84
2022/10/13 05:16:10;;;;;;;35.33;16.23;;;16.50;62.60;;;;;;5106921;27;20451;-85
2022/10/13 05:18:37;;;;;;;30.63;17.10;;;16.50;62.30;;;;;;5108380;27;21111;-86
2022/10/13 05:21:09;;;;;;;31.40;17.50;;;16.50;62.70;;;;;;5111339;27;20442;-90
2022/10/13 05:23:38;;;;;;;35.67;16.07;;;16.50;62.80;;;;;;5095376;27;21051;-85
2022/10/13 05:26:08;;;;;;;33.90;15.37;;;16.30;63.10;;;;;;5094154;28;20442;-86
2022/10/13 05:28:36;;;;;;;31.23;15.67;;;16.30;63.50;;;;;;5117102;28;21924;-86
2022/10/13 05:31:11;;;;;;;31.03;17.37;;;16.30;63.40;;;;;;5108598;27;20855;-86
2022/10/13 05:33:38;;;;;;;32.77;16.83;;;16.30;63.50;;;;;;5093900;28;20466;-87
2022/10/13 05:36:07;;;;;;;36.83;16.10;;;16.30;63.40;;;;;;5115819;27;20454;-87
2022/10/13 05:38:37;;;;;;;33.10;16.13;;;16.40;62.90;;;;;;5109594;27;20474;-88
2022/10/13 05:41:08;;;;;;;37.80;17.97;;;16.50;62.80;;;;;;5110857;27;20443;-86
2022/10/13 05:43:36;;;;;;;29.20;16.07;;;16.50;62.70;;;;;;5110705;28;20659;-86
2022/10/13 05:46:04;;;;;;;33.13;17.13;;;16.50;62.60;;;;;;5111208;28;20442;-86
2022/10/13 05:48:34;;;;;;;34.53;17.67;;;16.40;62.80;;;;;;5110877;28;21069;-86
2022/10/13 05:51:06;;;;;;;37.07;18.93;;;16.40;63.10;;;;;;5094093;28;20997;-88
2022/10/13 05:53:37;;;;;;;32.13;16.20;;;16.40;62.90;;;;;;5110359;28;20434;-86
2022/10/13 05:56:12;;;;;;;42.13;19.93;;;16.40;63.00;;;;;;5113932;28;20453;-85
2022/10/13 05:58:42;;;;;;;42.60;19.10;;;16.40;63.00;;;;;;5108126;28;20462;-86
2022/10/13 06:01:14;;;;;;;40.13;17.10;;;16.50;63.00;;;;;;5112569;28;20972;-85
2022/10/13 06:03:42;;;;;;;39.57;19.97;;;16.50;63.00;;;;;;5116049;28;20482;-85
2022/10/13 06:06:10;;;;;;;34.10;18.00;;;16.50;63.20;;;;;;5097456;28;20971;-85
2022/10/13 06:08:38;;;;;;;43.07;17.70;;;16.50;63.20;;;;;;5108466;28;20546;-86
2022/10/13 06:11:07;;;;;;;39.53;18.33;;;16.50;63.20;;;;;;5106998;28;20470;-87
2022/10/13 06:13:35;;;;;;;37.90;17.70;;;16.40;63.50;;;;;;5102216;28;20458;-85
2022/10/13 06:16:02;;;;;;;37.07;17.20;;;16.20;64.20;;;;;;5109270;28;20507;-86
2022/10/13 06:18:29;;;;;;;35.83;17.10;;;16.30;64.00;;;;;;5106651;28;21051;-84
2022/10/13 06:20:56;;;;;;;39.70;18.50;;;16.30;63.90;;;;;;5090292;28;20459;-85
2022/10/13 06:23:23;;;;;;;38.87;19.77;;;16.30;63.90;;;;;;5106768;27;20855;-86
2022/10/13 06:25:54;;;;;;;44.37;20.00;;;16.40;63.60;;;;;;5112758;27;20447;-86
2022/10/13 06:28:22;;;;;;;48.53;20.93;;;16.50;63.40;;;;;;5110848;27;20574;-88
2022/10/13 06:30:55;;;;;;;41.53;20.03;;;16.20;63.90;;;;;;5114792;27;20539;-85
2022/10/13 06:33:23;;;;;;;43.17;20.50;;;16.30;64.10;;;;;;5110916;27;20504;-86
2022/10/13 06:35:50;;;;;;;39.13;19.80;;;16.30;63.80;;;;;;5118480;27;20468;-85
2022/10/13 06:38:23;;;;;;;37.17;18.60;;;16.30;64.40;;;;;;5118183;27;20526;-87
2022/10/13 06:40:50;;;;;;;49.60;19.27;;;16.10;65.50;;;;;;5102389;27;20508;-85
2022/10/13 06:43:17;;;;;;;49.27;19.57;;;15.90;65.50;;;;;;5114035;27;20490;-85
2022/10/13 06:45:45;;;;;;;43.80;19.30;;;15.90;65.70;;;;;;5097754;27;20442;-85
2022/10/13 06:48:12;;;;;;;43.43;19.50;;;15.70;66.10;;;;;;5116077;27;20458;-85
2022/10/13 06:50:41;;;;;;;45.00;19.17;;;15.90;66.40;;;;;;5094260;27;20549;-86
2022/10/13 06:53:08;;;;;;;43.07;19.00;;;15.90;66.30;;;;;;5093793;27;20454;-85
2022/10/13 06:55:35;;;;;;;38.40;17.90;;;16.00;66.20;;;;;;5110714;27;21028;-86
2022/10/13 06:58:02;;;;;;;47.30;21.87;;;16.10;65.70;;;;;;5094765;27;20541;-86
2022/10/13 07:00:29;;;;;;;46.13;20.73;;;16.10;65.40;;;;;;5092179;27;20476;-86
2022/10/13 07:02:58;;;;;;;44.83;19.40;;;16.10;65.70;;;;;;5095334;27;21434;-84
2022/10/13 07:05:25;;;;;;;45.80;20.80;;;16.20;65.70;;;;;;5112189;27;20446;-86
2022/10/13 07:07:52;;;;;;;44.67;19.50;;;16.40;65.20;;;;;;5112551;27;21049;-87
2022/10/13 07:10:19;;;;;;;40.57;17.93;;;16.60;64.70;;;;;;5095692;27;20492;-87
2022/10/13 07:12:47;;;;;;;41.83;19.97;;;16.50;64.60;;;;;;5113392;27;20484;-85
2022/10/13 07:15:14;;;;;;;42.30;19.37;;;16.60;64.50;;;;;;5098815;27;20453;-86
2022/10/13 07:17:41;;;;;;;44.97;18.23;;;16.70;64.20;;;;;;5102520;27;21202;-85
2022/10/13 07:20:10;;;;;;;45.80;20.20;;;16.80;63.80;;;;;;5113367;27;20577;-86
2022/10/13 07:22:37;;;;;;;46.97;21.80;;;16.80;64.10;;;;;;5095116;27;20942;-85
2022/10/13 07:25:05;;;;;;;42.57;20.33;;;16.60;64.40;;;;;;5095360;27;20453;-86
2022/10/13 07:27:32;;;;;;;38.30;18.63;;;16.50;65.50;;;;;;5113518;27;20463;-85
2022/10/13 07:30:00;;;;;;;36.93;19.13;;;16.60;64.80;;;;;;5114407;27;20470;-86
2022/10/13 07:32:27;;;;;;;43.00;20.07;;;16.70;64.40;;;;;;5093588;27;20446;-87
2022/10/13 07:34:54;;;;;;;49.93;21.03;;;16.50;65.00;;;;;;5112330;27;20530;-85
2022/10/13 07:37:22;;;;;;;48.03;21.80;;;16.40;65.90;;;;;;5113608;27;20683;-87
2022/10/13 07:39:50;;;;;;;40.23;19.53;;;16.60;65.30;;;;;;5093282;27;20478;-86
2022/10/13 07:42:17;;;;;;;45.03;19.03;;;16.60;65.20;;;;;;5114549;27;20454;-86
2022/10/13 07:44:44;;;;;;;41.20;20.83;;;16.60;65.50;;;;;;5112719;27;20445;-86
2022/10/13 07:47:11;;;;;;;49.50;21.50;;;16.80;65.00;;;;;;5114354;27;21024;-86
2022/10/13 07:49:38;;;;;;;44.00;21.10;;;16.70;65.10;;;;;;5113916;27;20515;-85
2022/10/13 07:52:06;;;;;;;43.00;19.20;;;16.70;64.90;;;;;;5079269;27;20431;-87
2022/10/13 07:54:34;;;;;;;41.70;19.67;;;16.70;64.70;;;;;;5074336;27;20453;-85
2022/10/13 07:57:02;;;;;;;38.60;18.60;;;16.70;65.00;;;;;;5113207;27;20981;-85
2022/10/13 07:59:29;;;;;;;47.43;18.20;;;16.70;65.00;;;;;;5096716;27;20473;-85
2022/10/13 08:01:56;;;;;;;55.97;29.33;;;16.80;65.10;;;;;;5097788;27;20472;-86
2022/10/13 08:04:24;;;;;;;55.40;24.47;;;17.00;64.80;;;;;;5080121;27;20937;-88
2022/10/13 08:06:51;;;;;;;41.50;19.67;;;16.70;65.20;;;;;;5101385;27;20458;-86
2022/10/13 08:09:18;;;;;;;39.73;17.90;;;16.50;66.00;;;;;;5114527;27;20486;-86
2022/10/13 08:11:46;;;;;;;35.80;18.70;;;16.50;66.50;;;;;;5113698;27;20960;-86
2022/10/13 08:14:13;;;;;;;40.70;20.20;;;16.80;65.90;;;;;;5102380;27;20454;-86
2022/10/13 08:16:44;;;;;;;35.80;18.23;;;17.00;65.60;;;;;;5086138;27;20505;-86
2022/10/13 08:19:12;;;;;;;38.80;20.50;;;17.20;65.00;;;;;;5093228;27;20480;-87
2022/10/13 08:21:40;;;;;;;34.47;17.70;;;17.50;64.30;;;;;;5110639;27;20488;-85
2022/10/13 08:24:09;;;;;;;30.93;17.67;;;17.70;63.50;;;;;;5111683;27;20451;-86
2022/10/13 08:26:36;;;;;;;37.73;20.07;;;17.80;62.90;;;;;;5110717;27;20529;-86
2022/10/13 08:29:04;;;;;;;31.63;16.80;;;17.90;62.70;;;;;;5115963;27;20497;-86
2022/10/13 08:31:33;;;;;;;32.37;16.80;;;18.00;62.20;;;;;;5075149;27;20453;-85
2022/10/13 08:34:00;;;;;;;29.90;17.30;;;17.90;62.50;;;;;;5092920;27;20466;-85
2022/10/13 08:36:27;;;;;;;31.47;17.50;;;17.80;62.60;;;;;;5109152;27;20532;-87
2022/10/13 08:38:54;;;;;;;34.57;18.57;;;17.70;62.70;;;;;;5111892;27;20505;-89
2022/10/13 08:41:25;;;;;;;36.13;18.47;;;17.80;62.60;;;;;;5092130;27;20462;-85
2022/10/13 08:44:01;;;;;;;35.43;19.27;;;17.60;62.30;;;;;;5078764;28;20533;-86
2022/10/13 08:46:35;;;;;;;31.03;17.10;;;17.70;62.90;;;;;;5093379;27;20937;-84
2022/10/13 08:49:02;;;;;;;23.63;16.30;;;17.80;62.60;;;;;;5111159;27;20478;-85
2022/10/13 08:51:30;;;;;;;30.60;15.93;;;17.70;64.00;;;;;;5108658;27;20445;-87
2022/10/13 08:53:57;;;;;;;29.13;16.47;;;17.50;63.60;;;;;;5111267;27;20995;-86
2022/10/13 08:56:26;;;;;;;31.13;16.70;;;17.50;63.70;;;;;;5093122;27;20465;-86
2022/10/13 08:58:55;;;;;;;28.13;16.33;;;17.60;63.90;;;;;;5111658;27;20470;-86
2022/10/13 09:01:24;;;;;;;32.87;17.47;;;17.80;63.70;;;;;;5102334;27;20546;-87
2022/10/13 09:03:54;;;;;;;32.90;17.67;;;17.80;63.80;;;;;;5114164;27;20454;-84
2022/10/13 09:06:27;;;;;;;30.00;17.33;;;17.90;63.50;;;;;;5092198;27;20454;-85
2022/10/13 09:08:57;;;;;;;29.37;16.50;;;18.00;62.90;;;;;;5108443;27;20509;-85
2022/10/13 09:11:28;;;;;;;35.63;16.10;;;18.10;62.60;;;;;;5100119;27;20446;-89
2022/10/13 09:13:57;;;;;;;36.77;17.83;;;18.20;62.70;;;;;;5108956;27;20566;-86
2022/10/13 09:16:33;;;;;;;23.13;15.37;;;18.30;61.70;;;;;;5091527;27;20442;-85
2022/10/13 09:19:22;;;;;;;32.33;15.30;;;18.40;61.70;;;;;;5109704;27;20592;-85
2022/10/13 09:21:49;;;;;;;32.53;16.23;;;18.60;61.20;;;;;;5108546;27;20445;-87
2022/10/13 09:24:18;;;;;;;26.50;15.43;;;18.60;61.00;;;;;;5089639;27;20877;-85
2022/10/13 09:26:47;;;;;;;29.20;17.47;;;18.40;61.30;;;;;;5108975;27;20453;-87
2022/10/13 09:29:18;;;;;;;35.20;17.73;;;18.20;62.30;;;;;;5088872;28;20477;-84
2022/10/13 09:31:45;;;;;;;30.80;16.30;;;18.20;61.90;;;;;;5109403;27;20447;-85
2022/10/13 09:34:23;;;;;;;27.40;17.30;;;18.20;62.40;;;;;;5092266;28;20461;-86
2022/10/13 09:36:59;;;;;;;25.97;16.33;;;18.30;62.20;;;;;;5096439;27;20430;-85
2022/10/13 09:39:26;;;;;;;30.30;16.07;;;18.30;61.90;;;;;;5110737;27;20826;-86
2022/10/13 09:42:17;;;;;;;27.47;14.83;;;18.50;61.80;;;;;;5110431;27;20523;-88
2022/10/13 09:44:45;;;;;;;25.77;14.90;;;18.80;61.00;;;;;;5113501;28;21253;-86
2022/10/13 09:47:20;;;;;;;30.83;16.00;;;18.90;60.60;;;;;;5111780;28;20511;-85
2022/10/13 09:50:00;;;;;;;28.13;15.00;;;18.80;61.00;;;;;;5109176;28;20469;-88
2022/10/13 09:52:28;;;;;;;26.70;15.70;;;18.70;61.20;;;;;;5107941;28;20467;-87
2022/10/13 09:54:59;;;;;;;32.03;15.63;;;18.80;61.20;;;;;;5091666;28;21037;-87
2022/10/13 09:57:40;;;;;;;24.23;15.17;;;19.00;61.10;;;;;;5107995;27;20442;-87
2022/10/13 10:00:14;;;;;;;25.57;15.60;;;19.10;60.40;;;;;;5079839;27;21004;-86
2022/10/13 10:02:55;;;;;;;28.87;16.40;;;19.20;60.20;;;;;;5093433;27;20451;-86
2022/10/13 10:05:26;;;;;;;26.90;15.63;;;19.30;59.70;;;;;;5114271;27;20444;-86
2022/10/13 10:08:02;;;;;;;23.67;15.23;;;19.40;59.90;;;;;;5098753;27;20942;-86
2022/10/13 10:10:34;;;;;;;23.40;13.90;;;19.40;59.50;;;;;;5098805;27;20482;-86
2022/10/13 10:13:03;;;;;;;24.33;14.10;;;19.20;59.90;;;;;;5064882;27;21220;-87
2022/10/13 10:15:43;;;;;;;27.60;16.77;;;19.30;59.30;;;;;;5088137;27;20550;-87
2022/10/13 10:18:16;;;;;;;23.17;15.23;;;18.90;61.00;;;;;;5099490;27;20561;-83
2022/10/13 10:20:59;;;;;;;22.83;14.50;;;19.10;60.60;;;;;;5113703;27;20466;-84
2022/10/13 10:23:40;;;;;;;29.80;15.20;;;19.30;60.10;;;;;;5114910;27;20449;-85
2022/10/13 10:26:14;;;;;;;29.27;13.63;;;19.20;60.00;;;;;;5114800;27;20545;-84
2022/10/13 10:29:06;;;;;;;28.40;15.57;;;19.20;60.20;;;;;;5102885;27;20524;-85
2022/10/13 10:31:50;;;;;;;29.80;16.83;;;19.30;60.30;;;;;;5097928;27;20454;-84
2022/10/13 10:34:30;;;;;;;26.73;15.50;;;19.20;59.60;;;;;;5113563;27;20495;-84
2022/10/13 10:37:16;;;;;;;29.27;14.53;;;18.80;60.90;;;;;;5095326;27;20456;-87
2022/10/13 10:39:48;;;;;;;23.83;15.17;;;19.10;61.00;;;;;;5098964;27;20587;-86
2022/10/13 10:42:41;;;;;;;27.00;14.90;;;19.20;60.40;;;;;;5110976;27;20434;-83
2022/10/13 10:45:16;;;;;;;23.97;13.83;;;19.50;60.00;;;;;;5115303;27;20446;-84
2022/10/13 10:47:47;;;;;;;26.27;16.23;;;19.60;59.40;;;;;;5110081;27;20434;-85
2022/10/13 10:50:17;;;;;;;34.43;15.80;;;19.70;59.40;;;;;;5114708;27;20457;-87
2022/10/13 10:52:54;;;;;;;27.03;15.87;;;19.70;59.20;;;;;;5113633;27;20825;-87
2022/10/13 10:55:30;;;;;;;22.77;13.60;;;19.60;59.40;;;;;;5115020;27;20888;-86
2022/10/13 10:58:08;;;;;;;24.47;15.47;;;19.60;59.30;;;;;;5117767;27;20517;-84
2022/10/13 11:00:41;;;;;;;23.40;13.77;;;19.60;59.50;;;;;;5096357;27;20489;-86
2022/10/13 11:03:19;;;;;;;28.73;13.70;;;19.60;59.50;;;;;;5100495;27;20446;-83
2022/10/13 11:06:01;;;;;;;20.50;14.57;;;19.50;59.60;;;;;;5100648;27;20461;-82
2022/10/13 11:08:39;;;;;;;22.77;13.53;;;19.40;59.60;;;;;;5120618;27;20463;-83
2022/10/13 11:11:49;;;;;;;21.47;14.47;;;19.20;60.70;;;;;;5119804;27;20446;-84
2022/10/13 11:14:30;;;;;;;23.13;13.30;;;19.40;60.40;;;;;;5081682;27;20451;-84
2022/10/13 11:17:19;;;;;;;26.10;14.13;;;19.40;60.00;;;;;;5108145;27;20442;-86
2022/10/13 11:19:48;;;;;;;26.27;13.97;;;19.50;60.20;;;;;;5099738;27;20482;-84
2022/10/13 11:22:23;;;;;;;21.50;13.10;;;19.70;59.90;;;;;;5101015;27;20447;-84
2022/10/13 11:24:57;;;;;;;22.50;13.87;;;19.80;59.50;;;;;;5080501;27;21079;-88
2022/10/13 11:27:39;;;;;;;25.40;14.07;;;19.90;59.10;;;;;;5088353;27;20439;-87
2022/10/13 11:30:39;;;;;;;20.23;13.47;;;19.80;59.20;;;;;;5097340;27;20491;-83
2022/10/13 11:33:48;;;;;;;23.90;14.23;;;20.00;59.00;;;;;;5103298;27;20442;-84
2022/10/13 11:36:36;;;;;;;23.90;12.73;;;20.10;58.90;;;;;;5081371;28;20490;-84
2022/10/13 11:39:46;;;;;;;20.13;12.70;;;20.00;58.90;;;;;;5088493;27;20484;-84
2022/10/13 11:42:49;;;;;;;19.13;11.40;;;19.70;59.60;;;;;;5087983;27;20545;-84
2022/10/13 11:45:31;;;;;;;20.57;11.83;;;19.90;59.30;;;;;;5079189;27;20665;-83
2022/10/13 11:48:38;;;;;;;22.80;13.20;;;20.00;59.20;;;;;;5080652;27;20540;-86
2022/10/13 11:51:21;;;;;;;16.53;11.70;;;20.10;58.90;;;;;;5082002;28;20530;-84
2022/10/13 11:53:55;;;;;;;17.63;11.33;;;20.00;58.80;;;;;;5079307;27;20981;-84
2022/10/13 11:56:33;;;;;;;19.27;10.53;;;19.90;58.50;;;;;;5105567;27;20455;-84
2022/10/13 11:59:00;;;;;;;15.63;10.30;;;19.90;59.10;;;;;;5116286;27;20638;-84
2022/10/13 12:01:29;;;;;;;17.70;11.17;;;20.00;58.90;;;;;;5113911;27;20458;-86
2022/10/13 12:03:56;;;;;;;15.50;10.57;;;20.20;58.60;;;;;;5068411;27;20672;-82
2022/10/13 12:06:33;;;;;;;15.50;9.83;;;20.30;58.00;;;;;;5093960;27;20479;-85
2022/10/13 12:09:07;;;;;;;17.73;11.57;;;20.30;57.70;;;;;;5111633;27;20504;-85
2022/10/13 12:11:37;;;;;;;14.07;9.93;;;20.40;58.00;;;;;;5093237;27;20902;-82
2022/10/13 12:14:08;;;;;;;15.27;9.10;;;20.50;57.90;;;;;;5092350;27;20982;-85
2022/10/13 12:16:36;;;;;;;14.17;10.00;;;20.40;57.60;;;;;;5112544;27;20913;-85
2022/10/13 12:19:09;;;;;;;15.40;9.47;;;20.40;58.20;;;;;;5111309;27;21008;-84
2022/10/13 12:21:50;;;;;;;16.90;10.53;;;20.50;57.80;;;;;;5109335;27;21134;-84
2022/10/13 12:24:17;;;;;;;16.03;8.33;;;20.50;58.20;;;;;;5083197;27;20973;-83
2022/10/13 12:26:44;;;;;;;13.43;8.80;;;20.50;58.50;;;;;;5090930;27;20445;-85
2022/10/13 12:29:13;;;;;;;10.90;8.17;;;20.40;58.30;;;;;;5108266;27;20478;-84
2022/10/13 12:31:44;;;;;;;17.03;10.33;;;20.40;58.50;;;;;;5076554;27;20519;-84
2022/10/13 12:34:19;;;;;;;18.77;10.70;;;20.40;58.50;;;;;;5100174;27;20468;-85
2022/10/13 12:36:53;;;;;;;21.23;12.73;;;20.40;58.70;;;;;;5110519;27;20464;-86
2022/10/13 12:39:21;;;;;;;18.10;12.53;;;20.20;59.30;;;;;;5096479;27;20997;-85
2022/10/13 12:41:49;;;;;;;16.90;11.90;;;20.30;59.70;;;;;;5111434;27;20446;-87
2022/10/13 12:44:20;;;;;;;16.90;10.50;;;20.30;59.80;;;;;;5091075;27;21153;-84
2022/10/13 12:46:52;;;;;;;16.03;10.10;;;20.30;59.90;;;;;;5074525;27;20496;-84
2022/10/13 12:49:23;;;;;;;17.83;11.57;;;20.10;60.10;;;;;;5073864;27;20735;-87